createdAt,value
2023-02-27T00:00:24.385Z,0.80
2023-02-27T00:05:27.136Z,1.03
2023-02-27T00:10:30.054Z,1.10
2023-02-27T00:15:34.560Z,1.30
2023-02-27T00:20:38.255Z,0.80
2023-02-27T00:25:41.274Z,1.63
2023-02-27T00:30:45.520Z,1.10
2023-02-27T00:35:56.318Z,1.27
2023-02-27T00:40:59.329Z,1.47
2023-02-27T00:46:04.053Z,2.70
2023-02-27T00:51:07.090Z,1.93
2023-02-27T00:56:09.962Z,1.10
2023-02-27T01:01:14.226Z,1.50
2023-02-27T01:06:17.147Z,1.17
2023-02-27T01:11:20.059Z,1.37
2023-02-27T01:16:24.368Z,1.00
2023-02-27T01:21:28.172Z,0.90
2023-02-27T01:26:31.143Z,1.13
2023-02-27T01:31:37.737Z,0.70
2023-02-27T01:36:40.779Z,1.70
2023-02-27T01:41:43.600Z,1.10
2023-02-27T01:46:48.193Z,1.00
2023-02-27T01:51:55.378Z,1.03
2023-02-27T01:56:58.559Z,0.67
2023-02-27T02:02:04.135Z,1.00
2023-02-27T02:07:12.231Z,1.03
2023-02-27T02:12:16.389Z,1.30
2023-02-27T02:17:26.476Z,0.93
2023-02-27T02:22:49.301Z,0.90
2023-02-27T02:28:00.252Z,1.10
2023-02-27T02:33:40.931Z,0.87
2023-02-27T02:39:00.917Z,1.60
2023-02-27T02:44:07.280Z,0.93
2023-02-27T02:49:16.406Z,1.40
2023-02-27T02:54:29.696Z,1.17
2023-02-27T02:59:36.005Z,1.20
2023-02-27T03:04:41.468Z,0.80
2023-02-27T03:09:47.828Z,1.13
2023-02-27T03:14:55.066Z,0.90
2023-02-27T03:20:00.484Z,0.90
2023-02-27T03:25:08.514Z,0.63
2023-02-27T03:30:17.646Z,0.80
2023-02-27T03:35:21.254Z,0.60
2023-02-27T03:40:30.686Z,0.83
2023-02-27T03:45:39.367Z,1.20
2023-02-27T03:50:42.870Z,1.17
2023-02-27T03:55:48.751Z,1.20
2023-02-27T04:00:51.551Z,1.47
2023-02-27T04:05:54.477Z,1.13
2023-02-27T04:11:12.124Z,1.13
2023-02-27T04:16:37.304Z,1.03
2023-02-27T04:21:45.580Z,1.13
2023-02-27T04:26:52.981Z,1.17
2023-02-27T04:32:01.055Z,1.10
2023-02-27T04:37:09.642Z,0.90
2023-02-27T04:42:17.604Z,1.50
2023-02-27T04:47:20.981Z,2.13
2023-02-27T04:52:26.836Z,7.40
2023-02-27T04:57:33.545Z,11.40
2023-02-27T05:02:38.376Z,13.00
2023-02-27T05:07:44.585Z,14.03
2023-02-27T05:12:51.426Z,10.57
2023-02-27T05:18:00.904Z,9.30
2023-02-27T05:23:10.851Z,9.07
2023-02-27T05:28:18.729Z,6.87
2023-02-27T05:33:26.894Z,5.90
2023-02-27T05:38:33.595Z,4.77
2023-02-27T05:43:40.816Z,4.23
2023-02-27T05:48:45.466Z,2.83
2023-02-27T05:53:52.110Z,2.17
2023-02-27T05:59:00.388Z,2.00
2023-02-27T06:04:03.514Z,1.90
2023-02-27T06:09:07.001Z,2.20
2023-02-27T06:14:11.243Z,2.00
2023-02-27T06:19:14.135Z,1.40
2023-02-27T06:24:17.024Z,1.57
2023-02-27T06:29:21.288Z,1.53
2023-02-27T06:34:24.167Z,0.70
2023-02-27T06:39:27.097Z,1.60
2023-02-27T06:44:31.675Z,1.00
2023-02-27T06:49:34.696Z,1.13
2023-02-27T06:54:38.278Z,1.00
2023-02-27T06:59:43.047Z,1.03
2023-02-27T07:04:45.992Z,1.03
2023-02-27T07:09:49.203Z,1.07
2023-02-27T07:14:53.703Z,1.70
2023-02-27T07:19:56.574Z,1.40
2023-02-27T07:24:59.476Z,1.73
2023-02-27T07:30:03.842Z,1.23
2023-02-27T07:35:07.951Z,1.03
2023-02-27T07:40:12.100Z,1.03
2023-02-27T07:45:18.465Z,0.70
2023-02-27T07:50:21.561Z,1.00
2023-02-27T07:55:24.478Z,1.23
2023-02-27T08:00:29.670Z,1.27
2023-02-27T08:05:32.524Z,1.10
2023-02-27T08:10:35.424Z,0.97
2023-02-27T08:15:39.755Z,0.97
2023-02-27T08:20:42.601Z,0.77
2023-02-27T08:25:45.466Z,1.10
2023-02-27T08:30:49.800Z,0.80
2023-02-27T08:35:54.507Z,0.90
2023-02-27T08:40:57.477Z,1.20
2023-02-27T08:46:01.691Z,1.30
2023-02-27T08:51:04.796Z,0.90
2023-02-27T08:56:08.152Z,0.50
2023-02-27T09:01:12.493Z,1.00
2023-02-27T09:06:15.467Z,1.03
2023-02-27T09:11:18.932Z,0.93
2023-02-27T09:16:23.759Z,0.67
2023-02-27T09:21:30.406Z,0.97
2023-02-27T09:26:45.044Z,1.27
2023-02-27T09:31:50.710Z,1.27
2023-02-27T09:36:53.700Z,0.80
2023-02-27T09:42:01.435Z,1.10
2023-02-27T09:47:07.527Z,0.90
2023-02-27T09:52:14.287Z,1.20
2023-02-27T09:57:20.164Z,0.90
2023-02-27T10:02:41.877Z,0.70
2023-02-27T10:07:50.754Z,1.27
2023-02-27T10:13:05.985Z,1.57
2023-02-27T10:18:26.219Z,0.90
2023-02-27T10:23:36.884Z,2.80
2023-02-27T10:28:39.787Z,0.67
2023-02-27T10:33:45.027Z,0.57
2023-02-27T10:38:50.700Z,0.70
2023-02-27T10:43:56.326Z,1.40
2023-02-27T10:49:01.774Z,0.80
2023-02-27T10:54:23.564Z,0.80
2023-02-27T10:59:28.551Z,0.50
2023-02-27T11:04:35.877Z,0.50
2023-02-27T11:09:39.372Z,0.60
2023-02-27T11:14:53.175Z,1.70
2023-02-27T11:19:58.031Z,0.57
